Britannia Beach, Canada
Current Conditions -  °F | °C
As of 4:00 PM on Wednesday 26 Nov 2014 (Local Time) from CYVR Reporting Station
Overcast Overcast  
Wind Chill: 52°   Ceiling: 6400
Heat Index: 52°   Visibility: 15mi
Dew Point: 50°   Wind: 9mph
Humidity: 94%   Direction: 110°ESE
Pressure: 29.95"   Gusts: NA
Location:  49.63°N, 123.18°W
Report Text: CYVR 270000Z 11008KT 15SM FEW005 SCT028 BKN064 OVC130 11/10 A2995 RMK SF2SC2SC3AC1 VIS N 12SM SLP143
Loading
Personal Weather Stations






























Interactive Weather Map New forecast layout! Learn more

10-Day Weather Forecast

Advertisements
Track Severe Weather on mobile